createdAt,value
2023-04-17T00:01:05.261Z,7.42
2023-04-17T00:03:32.122Z,7.36
2023-04-17T00:05:58.746Z,7.34
2023-04-17T00:08:25.189Z,7.34
2023-04-17T00:11:04.218Z,7.29
2023-04-17T00:13:33.940Z,7.13
2023-04-17T00:16:00.408Z,7.32
2023-04-17T00:18:26.904Z,7.48
2023-04-17T00:20:53.665Z,7.03
2023-04-17T00:23:20.252Z,6.95
2023-04-17T00:25:46.665Z,7.38
2023-04-17T00:28:13.111Z,7.27
2023-04-17T00:30:39.520Z,7.31
2023-04-17T00:33:05.944Z,7.29
2023-04-17T00:35:32.426Z,7.30
2023-04-17T00:37:58.820Z,7.30
2023-04-17T00:40:25.320Z,7.03
2023-04-17T00:42:56.019Z,7.22
2023-04-17T00:45:22.484Z,7.03
2023-04-17T00:47:49.645Z,7.26
2023-04-17T00:50:16.424Z,7.45
2023-04-17T00:52:44.000Z,7.26
2023-04-17T00:55:11.222Z,7.18
2023-04-17T00:57:37.682Z,7.31
2023-04-17T01:00:05.570Z,7.44
2023-04-17T01:02:32.376Z,7.46
2023-04-17T01:04:58.893Z,7.48
2023-04-17T01:07:25.492Z,7.42
2023-04-17T01:09:52.032Z,7.22
2023-04-17T01:12:23.978Z,7.13
2023-04-17T01:14:51.544Z,7.29
2023-04-17T01:17:21.732Z,6.85
2023-04-17T01:19:49.433Z,6.98
2023-04-17T01:22:16.594Z,7.07
2023-04-17T01:24:43.205Z,7.27
2023-04-17T01:27:13.567Z,7.00
2023-04-17T01:29:40.801Z,6.87
2023-04-17T01:32:07.509Z,7.00
2023-04-17T01:34:36.792Z,7.18
2023-04-17T01:37:03.802Z,7.19
2023-04-17T01:39:30.315Z,7.18
2023-04-17T01:41:56.808Z,7.18
2023-04-17T01:44:23.230Z,6.84
2023-04-17T01:46:49.669Z,6.74
2023-04-17T01:49:16.541Z,6.90
2023-04-17T01:51:42.986Z,6.86
2023-04-17T01:54:09.421Z,7.05
2023-04-17T01:56:35.845Z,7.01
2023-04-17T01:59:02.253Z,7.07
2023-04-17T02:01:28.671Z,7.11
2023-04-17T02:03:55.262Z,6.90
2023-04-17T02:06:21.831Z,7.03
2023-04-17T02:08:48.235Z,6.94
2023-04-17T02:11:15.389Z,7.05
2023-04-17T02:13:41.858Z,6.94
2023-04-17T02:16:09.495Z,7.16
2023-04-17T02:18:36.754Z,7.01
2023-04-17T02:21:03.286Z,6.88
2023-04-17T02:23:29.747Z,7.00
2023-04-17T02:25:56.959Z,6.92
2023-04-17T02:28:23.407Z,7.04
2023-04-17T02:30:49.832Z,7.24
2023-04-17T02:33:16.286Z,7.43
2023-04-17T02:35:42.760Z,7.66
2023-04-17T02:38:09.201Z,7.60
2023-04-17T02:40:35.807Z,7.82
2023-04-17T02:43:02.284Z,7.81
2023-04-17T02:45:28.897Z,7.69
2023-04-17T02:47:55.651Z,7.84
2023-04-17T02:50:22.341Z,7.86
2023-04-17T02:52:48.755Z,7.47
2023-04-17T02:55:15.305Z,7.49
2023-04-17T02:57:41.708Z,7.71
2023-04-17T03:00:08.487Z,7.52
2023-04-17T03:02:35.084Z,7.63
2023-04-17T03:05:02.148Z,7.71
2023-04-17T03:07:28.586Z,7.69
2023-04-17T03:09:57.479Z,7.62
2023-04-17T03:12:23.915Z,7.57
2023-04-17T03:14:51.014Z,7.42
2023-04-17T03:17:18.266Z,7.28
2023-04-17T03:19:44.694Z,7.31
2023-04-17T03:22:13.264Z,7.32
2023-04-17T03:24:41.235Z,7.08
2023-04-17T03:27:07.737Z,6.90
2023-04-17T03:29:34.241Z,6.82
2023-04-17T03:32:00.924Z,7.08
2023-04-17T03:34:28.995Z,6.95
2023-04-17T03:36:55.799Z,6.93
2023-04-17T03:39:22.300Z,6.77
2023-04-17T03:41:48.794Z,6.73
2023-04-17T03:44:15.400Z,6.75
2023-04-17T03:46:41.858Z,6.70
2023-04-17T03:49:08.252Z,6.61
2023-04-17T03:51:34.670Z,6.82
2023-04-17T03:54:01.141Z,6.75
2023-04-17T03:56:27.668Z,6.82
2023-04-17T03:58:54.095Z,6.48
2023-04-17T04:01:22.237Z,6.46
2023-04-17T04:03:48.945Z,6.61
2023-04-17T04:06:20.149Z,6.54
2023-04-17T04:08:46.608Z,6.75
2023-04-17T04:11:13.811Z,6.74
2023-04-17T04:13:40.550Z,6.63
2023-04-17T04:16:07.461Z,6.53
2023-04-17T04:18:34.642Z,6.34
2023-04-17T04:21:01.133Z,6.39
2023-04-17T04:23:28.026Z,6.32
2023-04-17T04:25:56.843Z,6.14
2023-04-17T04:28:23.969Z,6.53
2023-04-17T04:30:51.459Z,6.21
2023-04-17T04:33:20.223Z,6.46
2023-04-17T04:35:51.187Z,6.60
2023-04-17T04:38:17.813Z,6.29
2023-04-17T04:40:52.108Z,6.36
2023-04-17T04:43:20.815Z,6.45
2023-04-17T04:45:48.733Z,6.62
2023-04-17T04:48:15.336Z,6.87
2023-04-17T04:50:41.821Z,6.54
2023-04-17T04:53:08.224Z,6.57
2023-04-17T04:55:34.736Z,6.54
2023-04-17T04:58:01.174Z,6.68
2023-04-17T05:00:27.597Z,6.44
2023-04-17T05:02:54.292Z,6.73
2023-04-17T05:05:21.026Z,6.66
2023-04-17T05:07:47.420Z,6.60
2023-04-17T05:10:13.878Z,6.77
2023-04-17T05:12:41.104Z,6.81
2023-04-17T05:15:08.004Z,6.87
2023-04-17T05:17:34.447Z,6.78
2023-04-17T05:20:00.898Z,6.93
2023-04-17T05:22:27.613Z,6.91
2023-04-17T05:24:54.120Z,6.88
2023-04-17T05:27:20.618Z,6.94
2023-04-17T05:29:47.013Z,6.89
2023-04-17T05:32:13.471Z,6.93
2023-04-17T05:34:39.962Z,7.01
2023-04-17T05:37:07.021Z,6.85
2023-04-17T05:39:34.315Z,7.17
2023-04-17T05:42:01.456Z,6.57
2023-04-17T05:44:27.932Z,6.61
2023-04-17T05:46:57.123Z,6.98
2023-04-17T05:49:23.587Z,6.70
2023-04-17T05:51:50.029Z,6.64
2023-04-17T05:54:16.498Z,6.60
2023-04-17T05:56:43.020Z,6.79
2023-04-17T05:59:09.656Z,6.95
2023-04-17T06:01:36.377Z,7.24
2023-04-17T06:04:03.212Z,7.41
2023-04-17T06:06:29.887Z,7.29
2023-04-17T06:08:56.443Z,6.90
2023-04-17T06:11:24.132Z,7.19
2023-04-17T06:13:51.875Z,7.18
2023-04-17T06:16:18.635Z,7.20
2023-04-17T06:18:45.171Z,7.03
2023-04-17T06:21:11.674Z,7.43
2023-04-17T06:23:38.073Z,7.45
2023-04-17T06:26:04.571Z,7.19
2023-04-17T06:28:32.196Z,7.24
2023-04-17T06:30:58.641Z,7.44
2023-04-17T06:33:26.773Z,7.24
2023-04-17T06:35:53.468Z,7.46
2023-04-17T06:38:19.915Z,7.69
2023-04-17T06:40:46.641Z,7.48
2023-04-17T06:43:15.403Z,7.30
2023-04-17T06:45:44.609Z,7.55
2023-04-17T06:48:11.442Z,7.79
2023-04-17T06:50:37.917Z,8.09
2023-04-17T06:53:04.548Z,7.98
2023-04-17T06:55:30.966Z,8.06
2023-04-17T06:57:57.405Z,8.46
2023-04-17T07:00:24.036Z,8.39
2023-04-17T07:02:51.380Z,8.52
2023-04-17T07:05:18.165Z,8.60
2023-04-17T07:07:44.653Z,8.37
2023-04-17T07:10:11.090Z,8.41
2023-04-17T07:12:37.722Z,8.52
2023-04-17T07:15:04.480Z,8.59
2023-04-17T07:17:30.929Z,8.59
2023-04-17T07:19:57.358Z,8.25
2023-04-17T07:22:25.244Z,8.49
2023-04-17T07:24:53.188Z,8.37
2023-04-17T07:27:19.819Z,9.01
2023-04-17T07:29:52.778Z,9.09
2023-04-17T07:32:19.331Z,9.09
2023-04-17T07:34:45.952Z,9.34
2023-04-17T07:37:12.454Z,9.50
2023-04-17T07:39:38.992Z,9.70
2023-04-17T07:42:08.664Z,9.64
2023-04-17T07:44:35.425Z,9.80
2023-04-17T07:47:01.979Z,9.83
2023-04-17T07:49:28.604Z,9.80
2023-04-17T07:51:55.214Z,10.43
2023-04-17T07:54:21.698Z,10.26
2023-04-17T07:56:49.259Z,10.14
2023-04-17T07:59:18.906Z,10.50
2023-04-17T08:01:45.340Z,10.39
2023-04-17T08:04:12.029Z,10.24
2023-04-17T08:06:39.115Z,9.87
2023-04-17T08:09:05.597Z,9.91
2023-04-17T08:11:35.675Z,10.13
2023-04-17T08:14:06.536Z,10.12
2023-04-17T08:16:33.451Z,9.65
2023-04-17T08:18:59.984Z,10.07
2023-04-17T08:21:26.727Z,10.13
2023-04-17T08:23:53.121Z,10.07
2023-04-17T08:26:20.500Z,10.37
2023-04-17T08:28:47.040Z,10.52
2023-04-17T08:31:13.890Z,10.34
2023-04-17T08:33:40.581Z,10.79
2023-04-17T08:36:09.658Z,11.06
2023-04-17T08:38:36.492Z,11.06
2023-04-17T08:41:06.052Z,11.02
2023-04-17T08:43:35.722Z,10.88
2023-04-17T08:46:03.459Z,10.44
2023-04-17T08:48:30.568Z,10.54
2023-04-17T08:50:57.090Z,10.48
2023-04-17T08:53:23.523Z,10.68
2023-04-17T08:55:50.177Z,10.68
2023-04-17T08:58:17.770Z,10.63
2023-04-17T09:00:45.574Z,10.75
2023-04-17T09:03:13.606Z,10.46
2023-04-17T09:05:43.317Z,10.96
2023-04-17T09:08:20.747Z,10.94
2023-04-17T09:10:53.080Z,10.70
2023-04-17T09:13:24.792Z,10.56
2023-04-17T09:16:04.711Z,10.66
2023-04-17T09:18:32.124Z,10.79
2023-04-17T09:21:03.023Z,10.41
2023-04-17T09:23:31.685Z,10.77
2023-04-17T09:26:09.073Z,10.92
2023-04-17T09:28:36.044Z,10.92
2023-04-17T09:31:23.464Z,10.70
2023-04-17T09:34:01.918Z,11.21
2023-04-17T09:36:33.279Z,11.05
2023-04-17T09:39:04.060Z,10.91
2023-04-17T09:41:32.756Z,10.98
2023-04-17T09:44:07.176Z,10.39
2023-04-17T09:46:45.562Z,10.71
2023-04-17T09:49:54.168Z,10.32
2023-04-17T09:52:25.581Z,10.79
2023-04-17T09:54:53.749Z,10.74
2023-04-17T09:57:21.243Z,11.22
2023-04-17T09:59:49.070Z,10.77
2023-04-17T10:02:18.533Z,10.89
2023-04-17T10:04:52.561Z,11.37
2023-04-17T10:07:19.001Z,11.35
2023-04-17T10:09:45.877Z,11.47
2023-04-17T10:12:15.363Z,11.01
2023-04-17T10:14:46.542Z,11.60
2023-04-17T10:17:34.012Z,11.02
2023-04-17T10:20:18.287Z,11.10
2023-04-17T10:22:45.059Z,11.09
2023-04-17T10:25:11.582Z,11.38
2023-04-17T10:27:38.805Z,11.34
2023-04-17T10:30:09.455Z,11.30
2023-04-17T10:32:36.914Z,11.23
2023-04-17T10:35:23.759Z,11.47
2023-04-17T10:37:50.196Z,11.36
2023-04-17T10:40:24.715Z,11.20
2023-04-17T10:43:17.935Z,11.08
2023-04-17T10:46:03.637Z,11.16
2023-04-17T10:48:40.772Z,11.40
2023-04-17T10:51:26.871Z,11.22
2023-04-17T10:53:56.033Z,10.46
2023-04-17T10:56:35.355Z,10.65
2023-04-17T10:59:12.879Z,10.55
2023-04-17T11:02:09.199Z,11.09
2023-04-17T11:04:36.032Z,10.74
2023-04-17T11:07:02.662Z,10.95
2023-04-17T11:09:29.611Z,11.27
2023-04-17T11:11:59.649Z,11.05
2023-04-17T11:14:26.627Z,11.11
2023-04-17T11:16:53.221Z,11.25
2023-04-17T11:19:22.985Z,11.31
2023-04-17T11:21:52.302Z,11.31
2023-04-17T11:24:31.962Z,11.38
2023-04-17T11:27:00.169Z,11.02
2023-04-17T11:29:27.570Z,11.06
2023-04-17T11:31:56.947Z,10.39
2023-04-17T11:34:25.840Z,10.25
2023-04-17T11:37:01.663Z,10.62
2023-04-17T11:39:31.008Z,10.48
2023-04-17T11:41:57.863Z,10.62
2023-04-17T11:44:25.456Z,10.57
2023-04-17T11:46:53.380Z,10.43
2023-04-17T11:49:27.412Z,10.17
2023-04-17T11:51:59.327Z,9.98
2023-04-17T11:54:26.557Z,10.18
2023-04-17T11:57:05.291Z,10.02
2023-04-17T11:59:37.858Z,10.51
2023-04-17T12:02:08.663Z,10.53
2023-04-17T12:04:37.119Z,10.39
2023-04-17T12:07:05.189Z,10.00
2023-04-17T12:09:32.922Z,10.44
2023-04-17T12:12:07.377Z,10.75
2023-04-17T12:14:34.198Z,10.83
2023-04-17T12:17:01.113Z,10.33
2023-04-17T12:19:29.270Z,9.75
2023-04-17T12:21:56.464Z,9.94
2023-04-17T12:24:24.743Z,9.55
2023-04-17T12:26:52.328Z,9.81
2023-04-17T12:29:26.591Z,9.92
2023-04-17T12:31:59.330Z,9.43
2023-04-17T12:34:27.239Z,9.86
2023-04-17T12:36:54.304Z,9.41
2023-04-17T12:39:20.792Z,9.32
2023-04-17T12:41:47.286Z,9.44
2023-04-17T12:44:14.241Z,9.12
2023-04-17T12:46:41.149Z,9.67
2023-04-17T12:49:07.640Z,9.35
2023-04-17T12:51:37.582Z,9.36
2023-04-17T12:54:04.280Z,9.46
2023-04-17T12:56:30.819Z,8.79
2023-04-17T12:58:57.294Z,8.97
2023-04-17T13:01:25.314Z,9.32
2023-04-17T13:03:52.031Z,8.97
2023-04-17T13:06:18.963Z,9.06
2023-04-17T13:08:45.429Z,8.83
2023-04-17T13:11:11.853Z,9.11
2023-04-17T13:13:38.272Z,9.01
2023-04-17T13:16:05.324Z,8.73
2023-04-17T13:18:31.741Z,9.09
2023-04-17T13:20:58.251Z,9.29
2023-04-17T13:23:24.778Z,9.23
2023-04-17T13:25:51.217Z,8.99
2023-04-17T13:28:17.663Z,9.25
2023-04-17T13:30:44.135Z,9.22
2023-04-17T13:33:10.661Z,9.49
2023-04-17T13:35:37.095Z,9.58
2023-04-17T13:38:04.230Z,9.21
2023-04-17T13:40:31.171Z,9.32
2023-04-17T13:42:58.415Z,9.36
2023-04-17T13:45:25.035Z,9.43
2023-04-17T13:47:51.862Z,9.50
2023-04-17T13:50:18.388Z,9.33
2023-04-17T13:52:44.870Z,9.15
2023-04-17T13:55:14.378Z,9.21
2023-04-17T13:57:40.868Z,9.32
2023-04-17T14:00:07.943Z,9.28
2023-04-17T14:02:34.633Z,9.41
2023-04-17T14:05:01.239Z,9.44
2023-04-17T14:07:27.812Z,9.12
2023-04-17T14:09:54.268Z,9.30
2023-04-17T14:12:21.684Z,8.94
2023-04-17T14:14:48.287Z,9.12
2023-04-17T14:17:14.910Z,8.83
2023-04-17T14:19:41.564Z,8.90
2023-04-17T14:22:08.078Z,8.88
2023-04-17T14:24:34.572Z,8.83
2023-04-17T14:27:01.835Z,9.13
2023-04-17T14:29:28.657Z,9.37
2023-04-17T14:31:55.333Z,8.98
2023-04-17T14:34:21.929Z,9.34
2023-04-17T14:36:48.789Z,9.19
2023-04-17T14:39:15.572Z,8.73
2023-04-17T14:41:42.283Z,9.06
2023-04-17T14:44:08.907Z,9.54
2023-04-17T14:46:35.738Z,9.57
2023-04-17T14:49:02.674Z,9.26
2023-04-17T14:51:30.713Z,8.79
2023-04-17T14:53:57.493Z,9.04
2023-04-17T14:56:24.318Z,9.09
2023-04-17T14:58:50.910Z,8.86
2023-04-17T15:01:17.434Z,8.49
2023-04-17T15:03:46.839Z,8.18
2023-04-17T15:06:15.186Z,8.43
2023-04-17T15:08:41.891Z,8.40
2023-04-17T15:11:08.826Z,8.68
2023-04-17T15:13:35.925Z,8.74
2023-04-17T15:16:02.621Z,8.32
2023-04-17T15:18:29.221Z,8.08
2023-04-17T15:20:56.098Z,8.19
2023-04-17T15:23:22.985Z,8.59
2023-04-17T15:25:49.510Z,8.38
2023-04-17T15:28:16.080Z,8.81
2023-04-17T15:30:42.704Z,8.78
2023-04-17T15:33:10.435Z,8.88
2023-04-17T15:35:37.679Z,9.19
2023-04-17T15:38:06.360Z,8.58
2023-04-17T15:40:33.853Z,8.56
2023-04-17T15:43:00.794Z,8.57
2023-04-17T15:45:27.454Z,8.83
2023-04-17T15:47:54.650Z,8.72
2023-04-17T15:50:21.783Z,8.45
2023-04-17T15:52:48.430Z,8.14
2023-04-17T15:55:15.354Z,8.20
2023-04-17T15:57:43.085Z,7.97
2023-04-17T16:00:10.399Z,8.15
2023-04-17T16:02:36.956Z,8.15
2023-04-17T16:05:04.028Z,8.49
2023-04-17T16:07:30.637Z,8.60
2023-04-17T16:09:58.501Z,8.30
2023-04-17T16:12:25.013Z,7.81
2023-04-17T16:14:51.609Z,7.99
2023-04-17T16:17:18.168Z,8.26
2023-04-17T16:19:44.681Z,8.04
2023-04-17T16:22:11.223Z,7.92
2023-04-17T16:24:37.760Z,7.81
2023-04-17T16:27:06.526Z,8.08
2023-04-17T16:29:32.941Z,8.15
2023-04-17T16:31:59.530Z,8.27
2023-04-17T16:34:26.123Z,8.67
2023-04-17T16:36:52.629Z,8.72
2023-04-17T16:39:19.125Z,8.73
2023-04-17T16:41:45.637Z,8.46
2023-04-17T16:44:12.993Z,8.37
2023-04-17T16:47:05.145Z,8.32
2023-04-17T16:49:26.196Z,8.35
2023-04-17T16:51:52.881Z,8.35
2023-04-17T16:54:21.446Z,8.34
2023-04-17T16:56:51.943Z,8.54
2023-04-17T16:59:18.451Z,8.57
2023-04-17T17:01:46.948Z,8.47
2023-04-17T17:04:13.546Z,8.34
2023-04-17T17:06:40.095Z,8.44
2023-04-17T17:09:06.681Z,8.43
2023-04-17T17:11:33.252Z,8.70
2023-04-17T17:13:59.782Z,8.38
2023-04-17T17:16:26.326Z,8.30
2023-04-17T17:18:52.776Z,8.41
2023-04-17T17:21:19.335Z,8.42
2023-04-17T17:23:45.943Z,8.31
2023-04-17T17:26:12.541Z,8.35
2023-04-17T17:28:39.009Z,8.05
2023-04-17T17:31:09.852Z,8.42
2023-04-17T17:33:36.796Z,8.44
2023-04-17T17:36:03.769Z,8.11
2023-04-17T17:38:32.497Z,8.22
2023-04-17T17:40:59.306Z,7.72
2023-04-17T17:43:27.988Z,7.70
2023-04-17T17:45:54.456Z,7.74
2023-04-17T17:48:21.235Z,7.63
2023-04-17T17:50:47.918Z,7.37
2023-04-17T17:53:16.577Z,7.85
2023-04-17T17:55:43.083Z,7.71
2023-04-17T17:58:09.612Z,7.55
2023-04-17T18:00:36.095Z,7.19
2023-04-17T18:03:02.701Z,7.18
2023-04-17T18:05:29.246Z,7.19
2023-04-17T18:07:55.865Z,7.25
2023-04-17T18:10:22.618Z,7.33
2023-04-17T18:12:49.770Z,7.35
2023-04-17T18:15:16.504Z,7.55
2023-04-17T18:17:43.192Z,7.47
2023-04-17T18:20:10.390Z,7.28
2023-04-17T18:22:38.251Z,7.02
2023-04-17T18:25:06.986Z,6.99
2023-04-17T18:27:36.127Z,7.05
2023-04-17T18:30:05.168Z,6.77
2023-04-17T18:32:32.097Z,7.03
2023-04-17T18:34:59.573Z,6.85
2023-04-17T18:37:26.072Z,7.03
2023-04-17T18:39:52.707Z,6.66
2023-04-17T18:42:19.794Z,6.95
2023-04-17T18:44:46.338Z,6.84
2023-04-17T18:47:12.855Z,7.04
2023-04-17T18:49:39.437Z,7.14
2023-04-17T18:52:05.866Z,7.05
2023-04-17T18:54:32.604Z,7.08
2023-04-17T18:56:59.173Z,7.21
2023-04-17T18:59:27.954Z,7.22
2023-04-17T19:01:54.388Z,7.12
2023-04-17T19:04:21.885Z,6.91
2023-04-17T19:06:48.347Z,7.03
2023-04-17T19:09:14.937Z,7.20
2023-04-17T19:11:41.387Z,6.93
2023-04-17T19:14:07.865Z,7.02
2023-04-17T19:16:34.718Z,6.88
2023-04-17T19:19:01.266Z,6.65
2023-04-17T19:21:28.350Z,6.91
2023-04-17T19:23:54.781Z,6.77
2023-04-17T19:26:24.064Z,6.82
2023-04-17T19:28:59.259Z,6.79
2023-04-17T19:31:29.392Z,6.52
2023-04-17T19:33:57.170Z,6.89
2023-04-17T19:36:27.621Z,6.96
2023-04-17T19:38:55.718Z,6.93
2023-04-17T19:41:22.271Z,6.80
2023-04-17T19:43:50.782Z,7.08
2023-04-17T19:46:19.009Z,7.25
2023-04-17T19:48:47.348Z,7.27
2023-04-17T19:51:16.064Z,6.94
2023-04-17T19:53:43.944Z,6.86
2023-04-17T19:56:11.190Z,7.02
2023-04-17T19:58:38.426Z,6.80
2023-04-17T20:01:05.168Z,6.69
2023-04-17T20:03:32.563Z,6.72
2023-04-17T20:06:00.002Z,6.82
2023-04-17T20:08:26.526Z,6.35
2023-04-17T20:10:53.018Z,6.71
2023-04-17T20:13:19.462Z,6.51
2023-04-17T20:15:45.991Z,6.47
2023-04-17T20:18:12.496Z,6.16
2023-04-17T20:20:39.354Z,6.37
2023-04-17T20:23:06.142Z,6.57
2023-04-17T20:25:32.976Z,6.45
2023-04-17T20:27:59.854Z,6.20
2023-04-17T20:30:26.491Z,6.17
2023-04-17T20:32:53.014Z,6.30
2023-04-17T20:35:23.503Z,6.45
2023-04-17T20:37:51.574Z,6.16
2023-04-17T20:40:18.997Z,6.27
2023-04-17T20:42:46.372Z,6.16
2023-04-17T20:45:13.328Z,6.14
2023-04-17T20:47:54.946Z,6.25
2023-04-17T20:50:23.255Z,6.45
2023-04-17T20:52:49.783Z,6.28
2023-04-17T20:55:18.613Z,6.62
2023-04-17T20:57:45.912Z,6.42
2023-04-17T21:00:12.916Z,6.60
2023-04-17T21:02:39.462Z,6.35
2023-04-17T21:05:07.605Z,6.22
2023-04-17T21:07:34.074Z,6.73
2023-04-17T21:10:00.534Z,6.48
2023-04-17T21:12:27.010Z,6.17
2023-04-17T21:14:53.506Z,6.35
2023-04-17T21:17:20.000Z,6.80
2023-04-17T21:19:47.202Z,6.71
2023-04-17T21:22:13.637Z,6.70
2023-04-17T21:24:40.166Z,6.42
2023-04-17T21:27:06.648Z,6.43
2023-04-17T21:29:33.035Z,6.32
2023-04-17T21:31:59.766Z,6.34
2023-04-17T21:34:26.308Z,6.29
2023-04-17T21:36:54.066Z,6.55
2023-04-17T21:39:21.350Z,6.21
2023-04-17T21:41:47.959Z,6.43
2023-04-17T21:44:15.137Z,6.31
2023-04-17T21:46:44.475Z,6.16
2023-04-17T21:49:10.887Z,6.38
2023-04-17T21:51:37.301Z,6.21
2023-04-17T21:54:04.175Z,5.90
2023-04-17T21:56:30.823Z,5.97
2023-04-17T21:58:57.207Z,5.95
2023-04-17T22:01:23.783Z,5.80
2023-04-17T22:03:50.546Z,5.79
2023-04-17T22:06:16.958Z,5.73
2023-04-17T22:08:43.465Z,5.72
2023-04-17T22:11:10.298Z,5.77
2023-04-17T22:13:36.689Z,5.91
2023-04-17T22:16:03.563Z,5.88
2023-04-17T22:18:30.072Z,5.87
2023-04-17T22:20:56.484Z,5.97
2023-04-17T22:23:22.958Z,6.15
2023-04-17T22:25:49.335Z,6.17
2023-04-17T22:28:15.724Z,6.09
2023-04-17T22:30:42.185Z,6.55
2023-04-17T22:33:08.613Z,6.28
2023-04-17T22:35:35.220Z,6.31
2023-04-17T22:38:01.634Z,6.11
2023-04-17T22:40:29.772Z,6.03
2023-04-17T22:42:56.212Z,6.32
2023-04-17T22:45:22.658Z,6.43
2023-04-17T22:47:49.104Z,6.30
2023-04-17T22:50:15.579Z,6.34
2023-04-17T22:52:41.968Z,6.15
2023-04-17T22:55:08.674Z,6.48
2023-04-17T22:57:35.556Z,6.12
2023-04-17T23:00:02.141Z,6.16
2023-04-17T23:02:28.686Z,6.03
2023-04-17T23:04:55.134Z,6.35
2023-04-17T23:07:21.580Z,6.15
2023-04-17T23:09:48.361Z,6.35
2023-04-17T23:12:14.849Z,6.28
2023-04-17T23:14:41.450Z,6.10
2023-04-17T23:17:07.907Z,6.05
2023-04-17T23:19:34.359Z,6.43
2023-04-17T23:22:01.134Z,6.13
2023-04-17T23:24:34.041Z,6.10
2023-04-17T23:27:01.619Z,6.09
2023-04-17T23:29:28.636Z,6.32
2023-04-17T23:31:55.116Z,6.06
2023-04-17T23:34:22.002Z,6.17
2023-04-17T23:36:48.457Z,6.28
2023-04-17T23:39:14.904Z,6.16
2023-04-17T23:41:42.139Z,5.91
2023-04-17T23:44:09.454Z,5.95
2023-04-17T23:46:36.401Z,6.15
2023-04-17T23:49:03.521Z,5.90
2023-04-17T23:51:30.342Z,5.94
2023-04-17T23:53:59.257Z,5.79
2023-04-17T23:56:25.965Z,5.72
2023-04-17T23:58:52.374Z,5.84
